sensor_id;sensor_type;location;lat;lon;timestamp;P1;durP1;ratioP1;P2;durP2;ratioP2
41687;SDS011;27371;42.686;23.362;2023-02-01T00:00:00;5.20;;;3.08;;
41687;SDS011;27371;42.686;23.362;2023-02-01T00:02:26;4.78;;;2.97;;
41687;SDS011;27371;42.686;23.362;2023-02-01T00:04:51;5.82;;;3.35;;
41687;SDS011;27371;42.686;23.362;2023-02-01T00:07:17;5.68;;;3.25;;
41687;SDS011;27371;42.686;23.362;2023-02-01T00:09:42;5.65;;;3.40;;
41687;SDS011;27371;42.686;23.362;2023-02-01T00:12:08;5.35;;;3.28;;
41687;SDS011;27371;42.686;23.362;2023-02-01T00:14:33;5.15;;;3.38;;
41687;SDS011;27371;42.686;23.362;2023-02-01T00:17:04;4.82;;;3.05;;
41687;SDS011;27371;42.686;23.362;2023-02-01T00:19:31;3.75;;;3.30;;
41687;SDS011;27371;42.686;23.362;2023-02-01T00:21:56;6.38;;;3.10;;
41687;SDS011;27371;42.686;23.362;2023-02-01T00:24:22;5.20;;;3.45;;
41687;SDS011;27371;42.686;23.362;2023-02-01T00:26:47;4.65;;;3.22;;
41687;SDS011;27371;42.686;23.362;2023-02-01T00:29:14;5.65;;;3.55;;
41687;SDS011;27371;42.686;23.362;2023-02-01T00:31:42;4.60;;;3.00;;
41687;SDS011;27371;42.686;23.362;2023-02-01T00:34:12;8.73;;;3.50;;
41687;SDS011;27371;42.686;23.362;2023-02-01T00:36:40;6.80;;;3.30;;
41687;SDS011;27371;42.686;23.362;2023-02-01T00:39:06;6.45;;;3.10;;
41687;SDS011;27371;42.686;23.362;2023-02-01T00:41:31;6.97;;;3.15;;
41687;SDS011;27371;42.686;23.362;2023-02-01T00:44:00;4.78;;;3.03;;
41687;SDS011;27371;42.686;23.362;2023-02-01T00:46:26;5.15;;;2.90;;
41687;SDS011;27371;42.686;23.362;2023-02-01T00:48:53;5.88;;;2.75;;
41687;SDS011;27371;42.686;23.362;2023-02-01T00:51:24;5.70;;;3.20;;
41687;SDS011;27371;42.686;23.362;2023-02-01T00:53:51;6.22;;;2.92;;
41687;SDS011;27371;42.686;23.362;2023-02-01T00:56:18;5.78;;;2.83;;
41687;SDS011;27371;42.686;23.362;2023-02-01T00:58:43;9.98;;;3.20;;
41687;SDS011;27371;42.686;23.362;2023-02-01T01:03:46;4.85;;;2.88;;
41687;SDS011;27371;42.686;23.362;2023-02-01T01:06:16;4.45;;;2.60;;
41687;SDS011;27371;42.686;23.362;2023-02-01T01:08:44;4.63;;;2.55;;
41687;SDS011;27371;42.686;23.362;2023-02-01T01:11:13;3.80;;;2.50;;
41687;SDS011;27371;42.686;23.362;2023-02-01T01:13:41;3.95;;;2.50;;
41687;SDS011;27371;42.686;23.362;2023-02-01T01:16:07;4.60;;;2.60;;
41687;SDS011;27371;42.686;23.362;2023-02-01T01:18:34;5.75;;;2.33;;
41687;SDS011;27371;42.686;23.362;2023-02-01T01:21:01;3.85;;;2.28;;
41687;SDS011;27371;42.686;23.362;2023-02-01T01:23:28;4.75;;;2.33;;
41687;SDS011;27371;42.686;23.362;2023-02-01T01:25:54;3.53;;;1.83;;
41687;SDS011;27371;42.686;23.362;2023-02-01T01:28:20;4.00;;;2.10;;
41687;SDS011;27371;42.686;23.362;2023-02-01T01:30:46;4.70;;;2.20;;
41687;SDS011;27371;42.686;23.362;2023-02-01T01:33:11;3.92;;;2.38;;
41687;SDS011;27371;42.686;23.362;2023-02-01T01:35:37;3.60;;;2.10;;
41687;SDS011;27371;42.686;23.362;2023-02-01T01:38:02;4.60;;;2.38;;
41687;SDS011;27371;42.686;23.362;2023-02-01T01:40:28;5.07;;;2.00;;
41687;SDS011;27371;42.686;23.362;2023-02-01T01:42:55;3.30;;;2.28;;
41687;SDS011;27371;42.686;23.362;2023-02-01T01:45:26;4.38;;;2.03;;
41687;SDS011;27371;42.686;23.362;2023-02-01T01:47:57;3.80;;;1.95;;
41687;SDS011;27371;42.686;23.362;2023-02-01T01:50:26;4.18;;;2.10;;
41687;SDS011;27371;42.686;23.362;2023-02-01T01:52:55;3.03;;;1.80;;
41687;SDS011;27371;42.686;23.362;2023-02-01T01:55:24;4.30;;;2.08;;
41687;SDS011;27371;42.686;23.362;2023-02-01T01:57:57;5.20;;;2.45;;
41687;SDS011;27371;42.686;23.362;2023-02-01T02:00:25;4.10;;;1.65;;
41687;SDS011;27371;42.686;23.362;2023-02-01T02:02:52;3.97;;;1.77;;
41687;SDS011;27371;42.686;23.362;2023-02-01T02:05:23;8.43;;;2.20;;
41687;SDS011;27371;42.686;23.362;2023-02-01T02:07:50;4.85;;;2.25;;
41687;SDS011;27371;42.686;23.362;2023-02-01T02:10:18;4.20;;;1.70;;
41687;SDS011;27371;42.686;23.362;2023-02-01T02:12:46;3.85;;;2.03;;
41687;SDS011;27371;42.686;23.362;2023-02-01T02:15:14;4.88;;;1.92;;
41687;SDS011;27371;42.686;23.362;2023-02-01T02:23:10;3.35;;;1.73;;
41687;SDS011;27371;42.686;23.362;2023-02-01T02:34:21;4.68;;;2.25;;
41687;SDS011;27371;42.686;23.362;2023-02-01T02:39:41;5.85;;;1.90;;
41687;SDS011;27371;42.686;23.362;2023-02-01T02:45:15;3.78;;;2.00;;
41687;SDS011;27371;42.686;23.362;2023-02-01T02:50:51;5.18;;;2.28;;
41687;SDS011;27371;42.686;23.362;2023-02-01T02:53:43;6.60;;;2.33;;
41687;SDS011;27371;42.686;23.362;2023-02-01T02:56:44;8.75;;;2.13;;
41687;SDS011;27371;42.686;23.362;2023-02-01T02:59:28;4.13;;;2.47;;
41687;SDS011;27371;42.686;23.362;2023-02-01T03:02:14;3.50;;;1.90;;
41687;SDS011;27371;42.686;23.362;2023-02-01T03:04:59;6.35;;;2.15;;
41687;SDS011;27371;42.686;23.362;2023-02-01T03:14:05;5.50;;;2.25;;
41687;SDS011;27371;42.686;23.362;2023-02-01T03:21:55;5.32;;;2.10;;
41687;SDS011;27371;42.686;23.362;2023-02-01T03:24:04;3.22;;;2.10;;
41687;SDS011;27371;42.686;23.362;2023-02-01T03:26:36;4.55;;;2.30;;
41687;SDS011;27371;42.686;23.362;2023-02-01T03:29:08;5.50;;;2.30;;
41687;SDS011;27371;42.686;23.362;2023-02-01T03:31:38;4.25;;;2.40;;
41687;SDS011;27371;42.686;23.362;2023-02-01T03:34:04;4.30;;;1.70;;
41687;SDS011;27371;42.686;23.362;2023-02-01T03:36:31;5.35;;;1.80;;
41687;SDS011;27371;42.686;23.362;2023-02-01T03:39:02;4.68;;;1.83;;
41687;SDS011;27371;42.686;23.362;2023-02-01T03:41:33;3.97;;;2.00;;
41687;SDS011;27371;42.686;23.362;2023-02-01T03:44:04;2.70;;;1.70;;
41687;SDS011;27371;42.686;23.362;2023-02-01T03:47:19;6.82;;;1.70;;
41687;SDS011;27371;42.686;23.362;2023-02-01T03:49:29;5.60;;;2.20;;
41687;SDS011;27371;42.686;23.362;2023-02-01T03:51:59;4.70;;;1.77;;
41687;SDS011;27371;42.686;23.362;2023-02-01T03:54:25;5.25;;;1.83;;
41687;SDS011;27371;42.686;23.362;2023-02-01T03:56:55;3.10;;;1.45;;
41687;SDS011;27371;42.686;23.362;2023-02-01T03:59:24;4.20;;;2.00;;
41687;SDS011;27371;42.686;23.362;2023-02-01T04:01:50;4.10;;;1.58;;
41687;SDS011;27371;42.686;23.362;2023-02-01T04:04:16;4.07;;;1.90;;
41687;SDS011;27371;42.686;23.362;2023-02-01T04:06:48;3.30;;;1.73;;
41687;SDS011;27371;42.686;23.362;2023-02-01T04:09:14;4.25;;;2.20;;
41687;SDS011;27371;42.686;23.362;2023-02-01T04:11:40;4.40;;;2.17;;
41687;SDS011;27371;42.686;23.362;2023-02-01T04:14:05;4.03;;;1.58;;
41687;SDS011;27371;42.686;23.362;2023-02-01T04:16:31;3.03;;;1.60;;
41687;SDS011;27371;42.686;23.362;2023-02-01T04:18:57;4.32;;;2.03;;
41687;SDS011;27371;42.686;23.362;2023-02-01T04:21:24;4.28;;;1.88;;
41687;SDS011;27371;42.686;23.362;2023-02-01T04:23:50;5.45;;;1.83;;
41687;SDS011;27371;42.686;23.362;2023-02-01T04:26:16;4.82;;;1.83;;
41687;SDS011;27371;42.686;23.362;2023-02-01T04:28:42;3.97;;;1.83;;
41687;SDS011;27371;42.686;23.362;2023-02-01T04:31:07;4.72;;;2.45;;
41687;SDS011;27371;42.686;23.362;2023-02-01T04:33:33;3.47;;;2.25;;
41687;SDS011;27371;42.686;23.362;2023-02-01T04:35:59;4.70;;;2.22;;
41687;SDS011;27371;42.686;23.362;2023-02-01T04:38:24;4.85;;;2.40;;
41687;SDS011;27371;42.686;23.362;2023-02-01T04:40:50;5.15;;;2.00;;
41687;SDS011;27371;42.686;23.362;2023-02-01T04:43:16;3.58;;;1.85;;
41687;SDS011;27371;42.686;23.362;2023-02-01T04:45:41;3.33;;;1.90;;
41687;SDS011;27371;42.686;23.362;2023-02-01T04:48:11;5.97;;;2.33;;
41687;SDS011;27371;42.686;23.362;2023-02-01T04:50:37;4.90;;;2.25;;
41687;SDS011;27371;42.686;23.362;2023-02-01T04:53:03;4.70;;;2.60;;
41687;SDS011;27371;42.686;23.362;2023-02-01T04:55:34;7.82;;;2.55;;
41687;SDS011;27371;42.686;23.362;2023-02-01T04:58:00;6.75;;;2.15;;
41687;SDS011;27371;42.686;23.362;2023-02-01T05:00:25;5.00;;;2.60;;
41687;SDS011;27371;42.686;23.362;2023-02-01T05:02:51;8.00;;;3.17;;
41687;SDS011;27371;42.686;23.362;2023-02-01T05:05:16;6.30;;;2.80;;
41687;SDS011;27371;42.686;23.362;2023-02-01T05:07:42;6.75;;;2.80;;
41687;SDS011;27371;42.686;23.362;2023-02-01T05:10:07;7.72;;;2.78;;
41687;SDS011;27371;42.686;23.362;2023-02-01T05:12:34;6.45;;;2.85;;
41687;SDS011;27371;42.686;23.362;2023-02-01T05:15:17;6.57;;;3.10;;
41687;SDS011;27371;42.686;23.362;2023-02-01T05:17:44;4.63;;;2.63;;
41687;SDS011;27371;42.686;23.362;2023-02-01T05:20:10;6.22;;;2.78;;
41687;SDS011;27371;42.686;23.362;2023-02-01T05:22:36;4.97;;;2.45;;
41687;SDS011;27371;42.686;23.362;2023-02-01T05:25:01;6.65;;;2.60;;
41687;SDS011;27371;42.686;23.362;2023-02-01T05:27:28;7.45;;;2.85;;
41687;SDS011;27371;42.686;23.362;2023-02-01T05:29:55;5.43;;;2.60;;
41687;SDS011;27371;42.686;23.362;2023-02-01T05:32:21;5.97;;;2.38;;
41687;SDS011;27371;42.686;23.362;2023-02-01T05:34:46;6.63;;;2.97;;
41687;SDS011;27371;42.686;23.362;2023-02-01T05:37:12;7.75;;;2.75;;
41687;SDS011;27371;42.686;23.362;2023-02-01T05:39:37;9.88;;;3.00;;
41687;SDS011;27371;42.686;23.362;2023-02-01T05:42:03;5.15;;;2.88;;
41687;SDS011;27371;42.686;23.362;2023-02-01T05:44:28;8.43;;;3.50;;
41687;SDS011;27371;42.686;23.362;2023-02-01T05:46:54;7.10;;;3.70;;
41687;SDS011;27371;42.686;23.362;2023-02-01T05:49:19;5.45;;;3.03;;
41687;SDS011;27371;42.686;23.362;2023-02-01T05:51:45;9.13;;;3.42;;
41687;SDS011;27371;42.686;23.362;2023-02-01T05:54:10;6.15;;;2.78;;
41687;SDS011;27371;42.686;23.362;2023-02-01T05:56:36;10.18;;;3.15;;
41687;SDS011;27371;42.686;23.362;2023-02-01T05:59:01;10.85;;;2.88;;
41687;SDS011;27371;42.686;23.362;2023-02-01T06:01:27;7.15;;;2.78;;
41687;SDS011;27371;42.686;23.362;2023-02-01T06:03:52;9.73;;;2.83;;
41687;SDS011;27371;42.686;23.362;2023-02-01T06:06:18;5.32;;;2.65;;
41687;SDS011;27371;42.686;23.362;2023-02-01T06:08:44;8.15;;;3.42;;
41687;SDS011;27371;42.686;23.362;2023-02-01T06:11:10;6.00;;;2.90;;
41687;SDS011;27371;42.686;23.362;2023-02-01T06:13:35;5.40;;;2.65;;
41687;SDS011;27371;42.686;23.362;2023-02-01T06:16:03;5.65;;;2.78;;
41687;SDS011;27371;42.686;23.362;2023-02-01T06:18:31;5.65;;;2.80;;
41687;SDS011;27371;42.686;23.362;2023-02-01T06:20:57;8.18;;;2.80;;
41687;SDS011;27371;42.686;23.362;2023-02-01T06:23:25;8.93;;;3.22;;
41687;SDS011;27371;42.686;23.362;2023-02-01T06:25:51;5.35;;;2.85;;
41687;SDS011;27371;42.686;23.362;2023-02-01T06:28:23;5.88;;;2.90;;
41687;SDS011;27371;42.686;23.362;2023-02-01T06:30:48;9.30;;;3.15;;
41687;SDS011;27371;42.686;23.362;2023-02-01T06:33:14;5.72;;;2.40;;
41687;SDS011;27371;42.686;23.362;2023-02-01T06:35:41;8.52;;;2.95;;
41687;SDS011;27371;42.686;23.362;2023-02-01T06:38:08;6.75;;;4.13;;
41687;SDS011;27371;42.686;23.362;2023-02-01T06:40:34;10.10;;;3.58;;
41687;SDS011;27371;42.686;23.362;2023-02-01T06:43:00;8.93;;;3.40;;
41687;SDS011;27371;42.686;23.362;2023-02-01T06:45:26;4.38;;;2.47;;
41687;SDS011;27371;42.686;23.362;2023-02-01T06:47:51;5.07;;;2.60;;
41687;SDS011;27371;42.686;23.362;2023-02-01T06:50:16;7.03;;;2.55;;
41687;SDS011;27371;42.686;23.362;2023-02-01T06:52:42;6.05;;;2.38;;
41687;SDS011;27371;42.686;23.362;2023-02-01T06:55:07;9.15;;;3.50;;
41687;SDS011;27371;42.686;23.362;2023-02-01T06:57:33;5.75;;;2.83;;
41687;SDS011;27371;42.686;23.362;2023-02-01T07:00:01;9.40;;;2.80;;
41687;SDS011;27371;42.686;23.362;2023-02-01T07:02:28;8.68;;;2.40;;
41687;SDS011;27371;42.686;23.362;2023-02-01T07:04:53;7.88;;;2.78;;
41687;SDS011;27371;42.686;23.362;2023-02-01T07:07:19;8.07;;;3.40;;
41687;SDS011;27371;42.686;23.362;2023-02-01T07:09:45;7.85;;;2.63;;
41687;SDS011;27371;42.686;23.362;2023-02-01T07:12:11;7.88;;;2.28;;
41687;SDS011;27371;42.686;23.362;2023-02-01T07:14:36;5.32;;;2.58;;
41687;SDS011;27371;42.686;23.362;2023-02-01T07:17:02;7.60;;;2.83;;
41687;SDS011;27371;42.686;23.362;2023-02-01T07:19:27;9.65;;;2.67;;
41687;SDS011;27371;42.686;23.362;2023-02-01T07:21:53;12.43;;;2.83;;
41687;SDS011;27371;42.686;23.362;2023-02-01T07:24:18;5.90;;;2.38;;
41687;SDS011;27371;42.686;23.362;2023-02-01T07:26:44;5.57;;;2.50;;
41687;SDS011;27371;42.686;23.362;2023-02-01T07:29:09;5.60;;;2.65;;
41687;SDS011;27371;42.686;23.362;2023-02-01T07:31:35;7.38;;;2.30;;
41687;SDS011;27371;42.686;23.362;2023-02-01T07:34:00;7.60;;;2.25;;
41687;SDS011;27371;42.686;23.362;2023-02-01T07:36:27;5.97;;;1.92;;
41687;SDS011;27371;42.686;23.362;2023-02-01T07:38:53;5.30;;;2.20;;
41687;SDS011;27371;42.686;23.362;2023-02-01T07:41:19;10.68;;;2.20;;
41687;SDS011;27371;42.686;23.362;2023-02-01T07:43:45;4.45;;;2.53;;
41687;SDS011;27371;42.686;23.362;2023-02-01T07:46:11;10.65;;;2.42;;
41687;SDS011;27371;42.686;23.362;2023-02-01T07:48:37;4.18;;;1.83;;
41687;SDS011;27371;42.686;23.362;2023-02-01T07:51:08;6.30;;;2.10;;
41687;SDS011;27371;42.686;23.362;2023-02-01T07:53:35;4.90;;;2.03;;
41687;SDS011;27371;42.686;23.362;2023-02-01T07:56:01;7.22;;;2.65;;
41687;SDS011;27371;42.686;23.362;2023-02-01T07:58:27;5.80;;;2.42;;
41687;SDS011;27371;42.686;23.362;2023-02-01T08:00:53;7.80;;;3.17;;
41687;SDS011;27371;42.686;23.362;2023-02-01T08:03:38;6.15;;;2.63;;
41687;SDS011;27371;42.686;23.362;2023-02-01T08:06:04;7.95;;;2.65;;
41687;SDS011;27371;42.686;23.362;2023-02-01T08:08:30;6.93;;;2.95;;
41687;SDS011;27371;42.686;23.362;2023-02-01T08:10:58;7.05;;;2.40;;
41687;SDS011;27371;42.686;23.362;2023-02-01T08:13:25;8.57;;;2.67;;
41687;SDS011;27371;42.686;23.362;2023-02-01T08:15:50;9.02;;;3.45;;
41687;SDS011;27371;42.686;23.362;2023-02-01T08:18:16;9.05;;;2.85;;
41687;SDS011;27371;42.686;23.362;2023-02-01T08:20:43;7.28;;;2.80;;
41687;SDS011;27371;42.686;23.362;2023-02-01T08:23:10;8.52;;;1.75;;
41687;SDS011;27371;42.686;23.362;2023-02-01T08:25:36;7.07;;;2.40;;
41687;SDS011;27371;42.686;23.362;2023-02-01T08:28:02;6.68;;;2.00;;
41687;SDS011;27371;42.686;23.362;2023-02-01T08:30:28;8.93;;;2.95;;
41687;SDS011;27371;42.686;23.362;2023-02-01T08:32:54;4.97;;;2.50;;
41687;SDS011;27371;42.686;23.362;2023-02-01T08:35:19;11.02;;;2.55;;
41687;SDS011;27371;42.686;23.362;2023-02-01T08:37:44;6.20;;;2.42;;
41687;SDS011;27371;42.686;23.362;2023-02-01T08:40:10;7.72;;;2.80;;
41687;SDS011;27371;42.686;23.362;2023-02-01T08:42:36;7.78;;;2.72;;
41687;SDS011;27371;42.686;23.362;2023-02-01T08:45:21;7.00;;;2.40;;
41687;SDS011;27371;42.686;23.362;2023-02-01T08:47:51;6.03;;;2.17;;
41687;SDS011;27371;42.686;23.362;2023-02-01T08:50:17;11.55;;;2.40;;
41687;SDS011;27371;42.686;23.362;2023-02-01T08:52:43;5.50;;;2.22;;
41687;SDS011;27371;42.686;23.362;2023-02-01T08:55:09;8.75;;;2.08;;
41687;SDS011;27371;42.686;23.362;2023-02-01T08:57:35;7.05;;;2.10;;
41687;SDS011;27371;42.686;23.362;2023-02-01T09:00:00;6.43;;;2.20;;
41687;SDS011;27371;42.686;23.362;2023-02-01T09:02:26;5.00;;;2.10;;
41687;SDS011;27371;42.686;23.362;2023-02-01T09:04:52;5.72;;;2.25;;
41687;SDS011;27371;42.686;23.362;2023-02-01T09:07:18;5.22;;;2.25;;
41687;SDS011;27371;42.686;23.362;2023-02-01T09:09:44;5.43;;;1.88;;
41687;SDS011;27371;42.686;23.362;2023-02-01T09:12:10;7.15;;;2.15;;
41687;SDS011;27371;42.686;23.362;2023-02-01T09:14:36;6.60;;;1.92;;
41687;SDS011;27371;42.686;23.362;2023-02-01T09:17:01;4.10;;;1.60;;
41687;SDS011;27371;42.686;23.362;2023-02-01T09:19:27;3.72;;;1.98;;
41687;SDS011;27371;42.686;23.362;2023-02-01T09:21:53;9.30;;;1.92;;
41687;SDS011;27371;42.686;23.362;2023-02-01T09:24:18;7.30;;;2.50;;
41687;SDS011;27371;42.686;23.362;2023-02-01T09:26:44;3.35;;;1.58;;
41687;SDS011;27371;42.686;23.362;2023-02-01T09:29:09;7.72;;;2.22;;
41687;SDS011;27371;42.686;23.362;2023-02-01T09:31:35;3.80;;;1.58;;
41687;SDS011;27371;42.686;23.362;2023-02-01T09:34:01;9.38;;;2.30;;
41687;SDS011;27371;42.686;23.362;2023-02-01T09:36:27;3.50;;;1.40;;
41687;SDS011;27371;42.686;23.362;2023-02-01T09:38:52;3.67;;;1.42;;
41687;SDS011;27371;42.686;23.362;2023-02-01T09:44:08;5.35;;;2.65;;
41687;SDS011;27371;42.686;23.362;2023-02-01T09:46:38;5.15;;;2.08;;
41687;SDS011;27371;42.686;23.362;2023-02-01T09:49:05;5.93;;;1.50;;
41687;SDS011;27371;42.686;23.362;2023-02-01T09:51:37;6.68;;;1.55;;
41687;SDS011;27371;42.686;23.362;2023-02-01T09:54:14;6.00;;;1.90;;
41687;SDS011;27371;42.686;23.362;2023-02-01T10:01:54;6.00;;;2.92;;
41687;SDS011;27371;42.686;23.362;2023-02-01T10:04:20;7.53;;;1.88;;
41687;SDS011;27371;42.686;23.362;2023-02-01T10:07:05;6.40;;;1.95;;
41687;SDS011;27371;42.686;23.362;2023-02-01T10:26:37;7.18;;;2.00;;
41687;SDS011;27371;42.686;23.362;2023-02-01T10:29:20;4.25;;;1.70;;
41687;SDS011;27371;42.686;23.362;2023-02-01T10:31:51;9.13;;;2.00;;
41687;SDS011;27371;42.686;23.362;2023-02-01T10:34:18;8.98;;;2.55;;
41687;SDS011;27371;42.686;23.362;2023-02-01T10:39:25;17.15;;;3.38;;
41687;SDS011;27371;42.686;23.362;2023-02-01T10:41:51;8.52;;;1.60;;
41687;SDS011;27371;42.686;23.362;2023-02-01T10:44:18;4.70;;;1.75;;
41687;SDS011;27371;42.686;23.362;2023-02-01T10:47:04;5.60;;;1.92;;
41687;SDS011;27371;42.686;23.362;2023-02-01T10:49:34;8.02;;;1.90;;
41687;SDS011;27371;42.686;23.362;2023-02-01T10:58:48;7.18;;;2.50;;
41687;SDS011;27371;42.686;23.362;2023-02-01T11:01:00;2.50;;;1.13;;
41687;SDS011;27371;42.686;23.362;2023-02-01T11:06:04;2.65;;;1.38;;
41687;SDS011;27371;42.686;23.362;2023-02-01T11:08:43;4.45;;;1.60;;
41687;SDS011;27371;42.686;23.362;2023-02-01T11:11:12;4.22;;;1.90;;
41687;SDS011;27371;42.686;23.362;2023-02-01T11:13:39;5.72;;;2.13;;
41687;SDS011;27371;42.686;23.362;2023-02-01T11:16:05;3.92;;;1.73;;
41687;SDS011;27371;42.686;23.362;2023-02-01T11:18:36;4.90;;;1.67;;
41687;SDS011;27371;42.686;23.362;2023-02-01T11:21:02;7.30;;;1.67;;
41687;SDS011;27371;42.686;23.362;2023-02-01T11:23:30;7.15;;;1.35;;
41687;SDS011;27371;42.686;23.362;2023-02-01T11:26:12;2.35;;;1.00;;
41687;SDS011;27371;42.686;23.362;2023-02-01T11:28:40;6.55;;;1.70;;
41687;SDS011;27371;42.686;23.362;2023-02-01T11:31:15;6.35;;;1.30;;
41687;SDS011;27371;42.686;23.362;2023-02-01T11:33:44;4.75;;;1.00;;
41687;SDS011;27371;42.686;23.362;2023-02-01T11:36:15;4.63;;;1.20;;
41687;SDS011;27371;42.686;23.362;2023-02-01T11:41:25;2.28;;;1.10;;
41687;SDS011;27371;42.686;23.362;2023-02-01T11:46:23;5.32;;;1.30;;
41687;SDS011;27371;42.686;23.362;2023-02-01T11:54:49;4.63;;;1.75;;
41687;SDS011;27371;42.686;23.362;2023-02-01T12:19:15;8.13;;;1.67;;
41687;SDS011;27371;42.686;23.362;2023-02-01T12:21:58;7.50;;;2.35;;
41687;SDS011;27371;42.686;23.362;2023-02-01T12:44:46;4.97;;;1.38;;
41687;SDS011;27371;42.686;23.362;2023-02-01T12:52:19;3.05;;;0.85;;
41687;SDS011;27371;42.686;23.362;2023-02-01T12:54:49;3.30;;;1.02;;
41687;SDS011;27371;42.686;23.362;2023-02-01T12:57:46;3.17;;;1.20;;
41687;SDS011;27371;42.686;23.362;2023-02-01T13:00:32;4.78;;;1.00;;
41687;SDS011;27371;42.686;23.362;2023-02-01T13:13:58;2.95;;;1.15;;
41687;SDS011;27371;42.686;23.362;2023-02-01T13:16:32;2.10;;;1.17;;
41687;SDS011;27371;42.686;23.362;2023-02-01T13:19:09;2.42;;;0.90;;
41687;SDS011;27371;42.686;23.362;2023-02-01T13:21:49;2.22;;;1.00;;
41687;SDS011;27371;42.686;23.362;2023-02-01T13:25:01;3.80;;;1.60;;
41687;SDS011;27371;42.686;23.362;2023-02-01T13:27:13;3.78;;;0.77;;
41687;SDS011;27371;42.686;23.362;2023-02-01T13:29:43;3.47;;;1.02;;
41687;SDS011;27371;42.686;23.362;2023-02-01T13:32:58;3.67;;;0.82;;
41687;SDS011;27371;42.686;23.362;2023-02-01T13:35:24;8.55;;;2.65;;
41687;SDS011;27371;42.686;23.362;2023-02-01T13:43:24;6.03;;;0.98;;
41687;SDS011;27371;42.686;23.362;2023-02-01T13:45:56;3.03;;;1.00;;
41687;SDS011;27371;42.686;23.362;2023-02-01T13:49:00;3.50;;;1.05;;
41687;SDS011;27371;42.686;23.362;2023-02-01T13:54:23;6.75;;;1.20;;
41687;SDS011;27371;42.686;23.362;2023-02-01T13:56:49;3.03;;;1.30;;
41687;SDS011;27371;42.686;23.362;2023-02-01T13:59:36;2.58;;;1.00;;
41687;SDS011;27371;42.686;23.362;2023-02-01T14:04:58;3.65;;;1.20;;
41687;SDS011;27371;42.686;23.362;2023-02-01T14:07:25;1.85;;;1.00;;
41687;SDS011;27371;42.686;23.362;2023-02-01T14:09:51;5.72;;;1.45;;
41687;SDS011;27371;42.686;23.362;2023-02-01T14:12:42;3.00;;;1.20;;
41687;SDS011;27371;42.686;23.362;2023-02-01T14:15:19;2.45;;;1.13;;
41687;SDS011;27371;42.686;23.362;2023-02-01T14:17:49;1.83;;;1.08;;
41687;SDS011;27371;42.686;23.362;2023-02-01T14:20:38;3.58;;;1.63;;
41687;SDS011;27371;42.686;23.362;2023-02-01T14:23:13;2.53;;;1.40;;
41687;SDS011;27371;42.686;23.362;2023-02-01T14:28:11;4.95;;;1.65;;
41687;SDS011;27371;42.686;23.362;2023-02-01T14:30:49;4.50;;;1.38;;
41687;SDS011;27371;42.686;23.362;2023-02-01T14:33:22;4.88;;;1.45;;
41687;SDS011;27371;42.686;23.362;2023-02-01T14:36:12;3.25;;;1.40;;
41687;SDS011;27371;42.686;23.362;2023-02-01T14:38:39;6.68;;;1.70;;
41687;SDS011;27371;42.686;23.362;2023-02-01T14:41:35;5.18;;;1.50;;
41687;SDS011;27371;42.686;23.362;2023-02-01T14:52:39;5.03;;;1.95;;
41687;SDS011;27371;42.686;23.362;2023-02-01T14:55:12;3.15;;;1.50;;
41687;SDS011;27371;42.686;23.362;2023-02-01T14:57:41;4.57;;;1.95;;
41687;SDS011;27371;42.686;23.362;2023-02-01T15:00:17;2.78;;;1.80;;
41687;SDS011;27371;42.686;23.362;2023-02-01T15:02:44;3.60;;;1.58;;
41687;SDS011;27371;42.686;23.362;2023-02-01T15:08:07;4.75;;;2.40;;
41687;SDS011;27371;42.686;23.362;2023-02-01T15:10:44;4.05;;;1.83;;
41687;SDS011;27371;42.686;23.362;2023-02-01T15:13:17;4.65;;;1.88;;
41687;SDS011;27371;42.686;23.362;2023-02-01T15:15:45;5.15;;;2.15;;
41687;SDS011;27371;42.686;23.362;2023-02-01T15:18:25;5.60;;;1.67;;
41687;SDS011;27371;42.686;23.362;2023-02-01T15:20:56;4.63;;;2.38;;
41687;SDS011;27371;42.686;23.362;2023-02-01T15:23:24;5.60;;;2.42;;
41687;SDS011;27371;42.686;23.362;2023-02-01T15:25:50;5.47;;;2.10;;
41687;SDS011;27371;42.686;23.362;2023-02-01T15:28:16;4.38;;;2.10;;
41687;SDS011;27371;42.686;23.362;2023-02-01T15:33:25;5.80;;;2.30;;
41687;SDS011;27371;42.686;23.362;2023-02-01T15:41:28;9.50;;;2.70;;
41687;SDS011;27371;42.686;23.362;2023-02-01T15:46:22;6.55;;;2.65;;
41687;SDS011;27371;42.686;23.362;2023-02-01T15:48:57;5.35;;;2.22;;
41687;SDS011;27371;42.686;23.362;2023-02-01T15:51:27;5.38;;;2.25;;
41687;SDS011;27371;42.686;23.362;2023-02-01T15:54:00;4.82;;;2.15;;
41687;SDS011;27371;42.686;23.362;2023-02-01T15:56:36;9.45;;;2.63;;
41687;SDS011;27371;42.686;23.362;2023-02-01T15:59:04;4.97;;;2.50;;
41687;SDS011;27371;42.686;23.362;2023-02-01T16:01:37;11.55;;;5.40;;
41687;SDS011;27371;42.686;23.362;2023-02-01T16:04:20;11.13;;;4.68;;
41687;SDS011;27371;42.686;23.362;2023-02-01T16:06:51;9.00;;;4.30;;
41687;SDS011;27371;42.686;23.362;2023-02-01T16:09:22;9.63;;;4.25;;
41687;SDS011;27371;42.686;23.362;2023-02-01T16:14:19;5.05;;;2.25;;
41687;SDS011;27371;42.686;23.362;2023-02-01T16:16:45;4.00;;;2.05;;
41687;SDS011;27371;42.686;23.362;2023-02-01T16:19:10;4.53;;;1.98;;
41687;SDS011;27371;42.686;23.362;2023-02-01T16:21:36;4.68;;;2.45;;
41687;SDS011;27371;42.686;23.362;2023-02-01T16:24:02;5.85;;;3.17;;
41687;SDS011;27371;42.686;23.362;2023-02-01T16:26:32;5.85;;;2.80;;
41687;SDS011;27371;42.686;23.362;2023-02-01T16:28:58;6.93;;;3.05;;
41687;SDS011;27371;42.686;23.362;2023-02-01T16:31:27;5.40;;;2.90;;
41687;SDS011;27371;42.686;23.362;2023-02-01T16:33:55;6.07;;;2.28;;
41687;SDS011;27371;42.686;23.362;2023-02-01T16:36:21;7.93;;;2.30;;
41687;SDS011;27371;42.686;23.362;2023-02-01T16:38:47;5.35;;;2.38;;
41687;SDS011;27371;42.686;23.362;2023-02-01T16:41:14;6.18;;;2.30;;
41687;SDS011;27371;42.686;23.362;2023-02-01T16:43:42;6.70;;;2.50;;
41687;SDS011;27371;42.686;23.362;2023-02-01T16:46:12;5.30;;;1.90;;
41687;SDS011;27371;42.686;23.362;2023-02-01T16:48:40;4.07;;;1.80;;
41687;SDS011;27371;42.686;23.362;2023-02-01T16:51:11;5.57;;;2.13;;
41687;SDS011;27371;42.686;23.362;2023-02-01T16:53:38;8.82;;;3.20;;
41687;SDS011;27371;42.686;23.362;2023-02-01T16:56:17;5.13;;;2.40;;
41687;SDS011;27371;42.686;23.362;2023-02-01T16:58:44;6.97;;;2.47;;
41687;SDS011;27371;42.686;23.362;2023-02-01T17:01:12;5.35;;;2.08;;
41687;SDS011;27371;42.686;23.362;2023-02-01T17:03:39;5.53;;;2.53;;
41687;SDS011;27371;42.686;23.362;2023-02-01T17:06:05;5.20;;;2.53;;
41687;SDS011;27371;42.686;23.362;2023-02-01T17:08:34;5.70;;;2.78;;
41687;SDS011;27371;42.686;23.362;2023-02-01T17:11:02;4.38;;;2.38;;
41687;SDS011;27371;42.686;23.362;2023-02-01T17:13:28;6.75;;;2.80;;
41687;SDS011;27371;42.686;23.362;2023-02-01T17:18:32;5.68;;;2.80;;
41687;SDS011;27371;42.686;23.362;2023-02-01T17:21:00;4.80;;;2.72;;
41687;SDS011;27371;42.686;23.362;2023-02-01T17:23:28;6.40;;;3.50;;
41687;SDS011;27371;42.686;23.362;2023-02-01T17:25:54;5.07;;;3.17;;
41687;SDS011;27371;42.686;23.362;2023-02-01T17:28:21;8.63;;;3.10;;
41687;SDS011;27371;42.686;23.362;2023-02-01T17:30:47;5.43;;;2.90;;
41687;SDS011;27371;42.686;23.362;2023-02-01T17:33:46;8.35;;;2.88;;
41687;SDS011;27371;42.686;23.362;2023-02-01T17:36:05;7.70;;;2.92;;
41687;SDS011;27371;42.686;23.362;2023-02-01T17:38:31;8.23;;;4.45;;
41687;SDS011;27371;42.686;23.362;2023-02-01T17:40:57;6.25;;;3.30;;
41687;SDS011;27371;42.686;23.362;2023-02-01T17:43:23;6.93;;;3.45;;
41687;SDS011;27371;42.686;23.362;2023-02-01T17:46:00;7.28;;;3.72;;
41687;SDS011;27371;42.686;23.362;2023-02-01T17:48:28;8.75;;;3.47;;